sensor_id;sensor_type;location;lat;lon;timestamp;pressure;altitude;pressure_sealevel;temperature;humidity
55604;BME280;41468;48.838;9.330;2023-02-07T00:01:13;100221.56;;;0.83;72.69
55604;BME280;41468;48.838;9.330;2023-02-07T00:03:42;100225.03;;;0.79;72.61
55604;BME280;41468;48.838;9.330;2023-02-07T00:06:12;100221.44;;;0.68;72.55
55604;BME280;41468;48.838;9.330;2023-02-07T00:08:39;100228.44;;;0.42;72.81
55604;BME280;41468;48.838;9.330;2023-02-07T00:11:10;100235.69;;;0.41;73.81
55604;BME280;41468;48.838;9.330;2023-02-07T00:13:37;100231.63;;;0.39;74.21
55604;BME280;41468;48.838;9.330;2023-02-07T00:16:05;100234.38;;;0.44;73.96
55604;BME280;41468;48.838;9.330;2023-02-07T00:18:32;100246.84;;;0.28;73.17
55604;BME280;41468;48.838;9.330;2023-02-07T00:21:02;100241.22;;;0.30;73.96
55604;BME280;41468;48.838;9.330;2023-02-07T00:23:29;100236.25;;;0.43;73.03
55604;BME280;41468;48.838;9.330;2023-02-07T00:25:57;100232.84;;;0.53;73.11
55604;BME280;41468;48.838;9.330;2023-02-07T00:28:23;100232.94;;;0.36;72.62
55604;BME280;41468;48.838;9.330;2023-02-07T00:31:01;100228.31;;;0.32;73.05
55604;BME280;41468;48.838;9.330;2023-02-07T00:33:28;100241.00;;;0.36;72.69
55604;BME280;41468;48.838;9.330;2023-02-07T00:35:59;100234.47;;;0.27;73.46
55604;BME280;41468;48.838;9.330;2023-02-07T00:38:27;100229.25;;;0.42;73.56
55604;BME280;41468;48.838;9.330;2023-02-07T00:40:54;100229.13;;;0.32;72.91
55604;BME280;41468;48.838;9.330;2023-02-07T00:43:21;100235.69;;;0.41;73.07
55604;BME280;41468;48.838;9.330;2023-02-07T00:45:59;100229.69;;;0.34;73.61
55604;BME280;41468;48.838;9.330;2023-02-07T00:48:27;100238.63;;;0.40;74.04
55604;BME280;41468;48.838;9.330;2023-02-07T00:50:54;100240.22;;;0.14;74.18
55604;BME280;41468;48.838;9.330;2023-02-07T00:53:21;100239.41;;;0.13;73.88
55604;BME280;41468;48.838;9.330;2023-02-07T00:55:48;100226.41;;;0.27;73.57
55604;BME280;41468;48.838;9.330;2023-02-07T00:58:14;100235.56;;;0.31;73.87
55604;BME280;41468;48.838;9.330;2023-02-07T01:00:41;100231.56;;;0.34;73.93
55604;BME280;41468;48.838;9.330;2023-02-07T01:03:08;100232.31;;;0.29;73.46
55604;BME280;41468;48.838;9.330;2023-02-07T01:05:35;100217.91;;;0.35;73.46
55604;BME280;41468;48.838;9.330;2023-02-07T01:08:02;100206.88;;;0.10;73.37
55604;BME280;41468;48.838;9.330;2023-02-07T01:10:29;100209.66;;;0.20;74.28
55604;BME280;41468;48.838;9.330;2023-02-07T01:12:55;100212.91;;;0.22;74.39
55604;BME280;41468;48.838;9.330;2023-02-07T01:15:22;100223.22;;;0.30;73.72
55604;BME280;41468;48.838;9.330;2023-02-07T01:17:48;100222.91;;;0.05;74.37
55604;BME280;41468;48.838;9.330;2023-02-07T01:20:15;100225.09;;;0.08;74.73
55604;BME280;41468;48.838;9.330;2023-02-07T01:22:42;100224.66;;;0.16;74.18
55604;BME280;41468;48.838;9.330;2023-02-07T01:25:09;100233.22;;;0.13;74.29
55604;BME280;41468;48.838;9.330;2023-02-07T01:27:35;100239.84;;;0.27;75.25
55604;BME280;41468;48.838;9.330;2023-02-07T01:30:04;100240.44;;;0.34;74.72
55604;BME280;41468;48.838;9.330;2023-02-07T01:32:44;100248.16;;;0.26;74.80
55604;BME280;41468;48.838;9.330;2023-02-07T01:35:11;100256.09;;;0.15;75.37
55604;BME280;41468;48.838;9.330;2023-02-07T01:37:37;100264.22;;;0.20;74.65
55604;BME280;41468;48.838;9.330;2023-02-07T01:40:04;100262.25;;;0.16;73.72
55604;BME280;41468;48.838;9.330;2023-02-07T01:42:31;100271.34;;;0.10;75.05
55604;BME280;41468;48.838;9.330;2023-02-07T01:48:08;100265.16;;;0.09;75.00
55604;BME280;41468;48.838;9.330;2023-02-07T01:50:38;100258.91;;;-0.18;75.16
55604;BME280;41468;48.838;9.330;2023-02-07T01:53:07;100243.41;;;-0.33;75.24
55604;BME280;41468;48.838;9.330;2023-02-07T01:55:37;100240.56;;;-0.27;75.18
55604;BME280;41468;48.838;9.330;2023-02-07T01:58:06;100235.19;;;-0.43;75.74
55604;BME280;41468;48.838;9.330;2023-02-07T02:00:34;100230.97;;;-0.39;75.71
55604;BME280;41468;48.838;9.330;2023-02-07T02:03:01;100234.91;;;-0.47;75.03
55604;BME280;41468;48.838;9.330;2023-02-07T02:05:29;100249.69;;;-0.45;75.37
55604;BME280;41468;48.838;9.330;2023-02-07T02:07:57;100237.66;;;-0.42;74.72
55604;BME280;41468;48.838;9.330;2023-02-07T02:10:46;100242.91;;;-0.30;74.27
55604;BME280;41468;48.838;9.330;2023-02-07T02:13:25;100234.69;;;-0.40;73.19
55604;BME280;41468;48.838;9.330;2023-02-07T02:33:07;100231.84;;;-0.73;72.97
55604;BME280;41468;48.838;9.330;2023-02-07T02:35:45;100228.13;;;-0.88;73.93
55604;BME280;41468;48.838;9.330;2023-02-07T02:38:25;100221.47;;;-0.86;74.60
55604;BME280;41468;48.838;9.330;2023-02-07T02:43:45;100223.94;;;-0.62;74.04
55604;BME280;41468;48.838;9.330;2023-02-07T02:46:17;100231.03;;;-0.73;74.34
55604;BME280;41468;48.838;9.330;2023-02-07T02:48:47;100230.47;;;-0.75;74.56
55604;BME280;41468;48.838;9.330;2023-02-07T02:51:15;100241.75;;;-0.73;75.14
55604;BME280;41468;48.838;9.330;2023-02-07T02:53:52;100236.97;;;-0.71;75.11
55604;BME280;41468;48.838;9.330;2023-02-07T02:58:51;100233.38;;;-0.60;74.75
55604;BME280;41468;48.838;9.330;2023-02-07T03:01:55;100238.16;;;-0.62;74.60
55604;BME280;41468;48.838;9.330;2023-02-07T03:04:53;100245.81;;;-0.54;74.37
55604;BME280;41468;48.838;9.330;2023-02-07T03:07:58;100248.78;;;-0.72;73.94
55604;BME280;41468;48.838;9.330;2023-02-07T03:10:30;100245.34;;;-0.84;74.92
55604;BME280;41468;48.838;9.330;2023-02-07T03:13:09;100257.34;;;-0.70;74.34
55604;BME280;41468;48.838;9.330;2023-02-07T03:21:04;100252.66;;;-0.80;74.08
55604;BME280;41468;48.838;9.330;2023-02-07T03:23:35;100262.25;;;-0.67;74.57
55604;BME280;41468;48.838;9.330;2023-02-07T03:26:04;100263.72;;;-0.76;74.68
55604;BME280;41468;48.838;9.330;2023-02-07T03:28:32;100256.81;;;-0.72;74.79
55604;BME280;41468;48.838;9.330;2023-02-07T03:31:00;100258.91;;;-0.57;74.62
55604;BME280;41468;48.838;9.330;2023-02-07T03:33:28;100261.09;;;-0.54;73.61
55604;BME280;41468;48.838;9.330;2023-02-07T03:36:07;100268.91;;;-0.53;74.10
55604;BME280;41468;48.838;9.330;2023-02-07T03:38:36;100266.69;;;-0.39;74.35
55604;BME280;41468;48.838;9.330;2023-02-07T03:41:13;100262.25;;;-0.67;74.98
55604;BME280;41468;48.838;9.330;2023-02-07T03:43:42;100261.50;;;-0.62;73.78
55604;BME280;41468;48.838;9.330;2023-02-07T03:46:10;100260.84;;;-0.53;74.20
55604;BME280;41468;48.838;9.330;2023-02-07T03:48:36;100259.16;;;-0.59;74.66
55604;BME280;41468;48.838;9.330;2023-02-07T03:51:03;100261.84;;;-0.59;74.60
55604;BME280;41468;48.838;9.330;2023-02-07T03:53:30;100259.63;;;-0.62;74.58
55604;BME280;41468;48.838;9.330;2023-02-07T03:55:57;100263.34;;;-0.46;73.86
55604;BME280;41468;48.838;9.330;2023-02-07T03:58:23;100263.03;;;-0.50;74.52
55604;BME280;41468;48.838;9.330;2023-02-07T04:00:50;100258.81;;;-0.46;73.59
55604;BME280;41468;48.838;9.330;2023-02-07T04:03:16;100255.00;;;-0.50;72.60
55604;BME280;41468;48.838;9.330;2023-02-07T04:05:44;100252.50;;;-0.56;73.18
55604;BME280;41468;48.838;9.330;2023-02-07T04:08:17;100245.75;;;-0.59;73.34
55604;BME280;41468;48.838;9.330;2023-02-07T04:10:43;100239.97;;;-0.68;73.76
55604;BME280;41468;48.838;9.330;2023-02-07T04:13:10;100236.16;;;-0.72;73.69
55604;BME280;41468;48.838;9.330;2023-02-07T04:15:37;100229.00;;;-0.66;73.90
55604;BME280;41468;48.838;9.330;2023-02-07T04:18:04;100237.94;;;-0.60;73.29
55604;BME280;41468;48.838;9.330;2023-02-07T04:20:30;100238.75;;;-0.77;73.82
55604;BME280;41468;48.838;9.330;2023-02-07T04:22:57;100239.97;;;-0.84;74.89
55604;BME280;41468;48.838;9.330;2023-02-07T04:25:23;100252.00;;;-0.70;73.43
55604;BME280;41468;48.838;9.330;2023-02-07T04:27:50;100254.56;;;-0.41;73.03
55604;BME280;41468;48.838;9.330;2023-02-07T04:30:17;100252.88;;;-0.48;71.90
55604;BME280;41468;48.838;9.330;2023-02-07T04:32:48;100245.13;;;-0.44;72.24
55604;BME280;41468;48.838;9.330;2023-02-07T04:35:15;100247.34;;;-0.58;72.45
55604;BME280;41468;48.838;9.330;2023-02-07T04:37:41;100252.97;;;-0.59;73.45
55604;BME280;41468;48.838;9.330;2023-02-07T04:40:09;100244.38;;;-0.61;71.92
55604;BME280;41468;48.838;9.330;2023-02-07T04:42:35;100248.19;;;-0.74;73.89
55604;BME280;41468;48.838;9.330;2023-02-07T04:45:13;100244.84;;;-0.81;73.31
55604;BME280;41468;48.838;9.330;2023-02-07T04:47:40;100238.75;;;-0.77;72.87
55604;BME280;41468;48.838;9.330;2023-02-07T04:50:07;100239.19;;;-0.85;73.21
55604;BME280;41468;48.838;9.330;2023-02-07T04:52:33;100235.34;;;-0.72;71.66
55604;BME280;41468;48.838;9.330;2023-02-07T04:55:00;100246.91;;;-0.88;71.56
55604;BME280;41468;48.838;9.330;2023-02-07T04:57:27;100250.38;;;-0.71;71.19
55604;BME280;41468;48.838;9.330;2023-02-07T04:59:53;100243.16;;;-0.87;72.18
55604;BME280;41468;48.838;9.330;2023-02-07T05:02:31;100251.28;;;-0.82;71.77
55604;BME280;41468;48.838;9.330;2023-02-07T05:04:58;100251.69;;;-0.91;71.62
55604;BME280;41468;48.838;9.330;2023-02-07T05:07:25;100246.97;;;-0.83;71.26
55604;BME280;41468;48.838;9.330;2023-02-07T05:09:51;100256.31;;;-1.03;71.46
55604;BME280;41468;48.838;9.330;2023-02-07T05:12:23;100249.16;;;-0.97;72.64
55604;BME280;41468;48.838;9.330;2023-02-07T05:14:50;100252.50;;;-1.07;72.53
55604;BME280;41468;48.838;9.330;2023-02-07T05:17:16;100246.34;;;-1.07;72.98
55604;BME280;41468;48.838;9.330;2023-02-07T05:19:43;100252.91;;;-0.98;73.32
55604;BME280;41468;48.838;9.330;2023-02-07T05:22:09;100249.09;;;-0.85;71.61
55604;BME280;41468;48.838;9.330;2023-02-07T05:24:36;100253.16;;;-1.00;72.49
55604;BME280;41468;48.838;9.330;2023-02-07T05:27:03;100242.09;;;-0.86;70.88
55604;BME280;41468;48.838;9.330;2023-02-07T05:29:29;100238.78;;;-0.94;71.65
55604;BME280;41468;48.838;9.330;2023-02-07T05:31:56;100237.63;;;-0.98;72.37
55604;BME280;41468;48.838;9.330;2023-02-07T05:34:41;100241.63;;;-1.00;70.02
55604;BME280;41468;48.838;9.330;2023-02-07T05:37:07;100254.28;;;-0.96;70.67
55604;BME280;41468;48.838;9.330;2023-02-07T05:39:34;100253.16;;;-1.00;71.27
55604;BME280;41468;48.838;9.330;2023-02-07T05:42:00;100252.25;;;-1.05;70.81
55604;BME280;41468;48.838;9.330;2023-02-07T05:44:27;100253.00;;;-1.10;70.60
55604;BME280;41468;48.838;9.330;2023-02-07T05:46:54;100242.91;;;-1.03;70.50
55604;BME280;41468;48.838;9.330;2023-02-07T05:49:20;100240.16;;;-1.08;70.80
55604;BME280;41468;48.838;9.330;2023-02-07T05:51:47;100242.75;;;-0.96;70.16
55604;BME280;41468;48.838;9.330;2023-02-07T05:54:13;100252.41;;;-0.95;69.67
55604;BME280;41468;48.838;9.330;2023-02-07T05:56:40;100251.84;;;-0.97;71.85
55604;BME280;41468;48.838;9.330;2023-02-07T05:59:06;100246.16;;;-1.01;70.02
55604;BME280;41468;48.838;9.330;2023-02-07T06:01:33;100254.28;;;-0.96;69.89
55604;BME280;41468;48.838;9.330;2023-02-07T06:04:02;100246.56;;;-1.09;69.27
55604;BME280;41468;48.838;9.330;2023-02-07T06:06:29;100244.97;;;-1.10;70.60
55604;BME280;41468;48.838;9.330;2023-02-07T06:08:55;100231.63;;;-0.88;71.41
55604;BME280;41468;48.838;9.330;2023-02-07T06:11:22;100229.66;;;-1.26;72.05
55604;BME280;41468;48.838;9.330;2023-02-07T06:13:48;100224.38;;;-1.38;73.46
55604;BME280;41468;48.838;9.330;2023-02-07T06:16:15;100234.59;;;-1.52;74.00
55604;BME280;41468;48.838;9.330;2023-02-07T06:18:41;100224.84;;;-1.58;74.50
55604;BME280;41468;48.838;9.330;2023-02-07T06:21:15;100232.59;;;-1.73;74.53
55604;BME280;41468;48.838;9.330;2023-02-07T06:23:42;100226.41;;;-1.74;74.53
55604;BME280;41468;48.838;9.330;2023-02-07T06:26:08;100239.94;;;-1.81;74.61
55604;BME280;41468;48.838;9.330;2023-02-07T06:28:35;100234.63;;;-1.92;74.65
55604;BME280;41468;48.838;9.330;2023-02-07T06:31:01;100239.50;;;-1.89;74.51
55604;BME280;41468;48.838;9.330;2023-02-07T06:33:28;100251.41;;;-1.97;75.16
55604;BME280;41468;48.838;9.330;2023-02-07T06:35:55;100254.50;;;-1.76;73.81
55604;BME280;41468;48.838;9.330;2023-02-07T06:38:21;100255.84;;;-2.03;74.46
55604;BME280;41468;48.838;9.330;2023-02-07T06:40:48;100262.25;;;-2.15;74.75
55604;BME280;41468;48.838;9.330;2023-02-07T06:43:15;100266.91;;;-2.11;75.28
55604;BME280;41468;48.838;9.330;2023-02-07T06:45:41;100274.91;;;-1.99;74.67
55604;BME280;41468;48.838;9.330;2023-02-07T06:48:08;100274.38;;;-2.01;75.71
55604;BME280;41468;48.838;9.330;2023-02-07T06:50:35;100277.94;;;-1.95;74.69
55604;BME280;41468;48.838;9.330;2023-02-07T06:53:02;100274.63;;;-2.14;75.05
55604;BME280;41468;48.838;9.330;2023-02-07T06:55:30;100263.81;;;-2.19;74.90
55604;BME280;41468;48.838;9.330;2023-02-07T06:57:57;100266.22;;;-2.18;74.75
55604;BME280;41468;48.838;9.330;2023-02-07T07:00:24;100263.97;;;-1.97;74.23
55604;BME280;41468;48.838;9.330;2023-02-07T07:02:50;100270.41;;;-1.98;75.29
55604;BME280;41468;48.838;9.330;2023-02-07T07:05:18;100272.50;;;-2.12;75.17
55604;BME280;41468;48.838;9.330;2023-02-07T07:07:44;100277.53;;;-2.16;75.07
55604;BME280;41468;48.838;9.330;2023-02-07T07:10:12;100280.34;;;-2.23;74.96
55604;BME280;41468;48.838;9.330;2023-02-07T07:12:39;100282.09;;;-2.28;75.20
55604;BME280;41468;48.838;9.330;2023-02-07T07:15:06;100278.88;;;-2.02;74.82
55604;BME280;41468;48.838;9.330;2023-02-07T07:17:37;100279.69;;;-0.09;95.90
55604;BME280;41468;48.838;9.330;2023-02-07T07:20:05;100284.03;;;-1.14;72.21
55604;BME280;41468;48.838;9.330;2023-02-07T07:22:33;100282.19;;;-1.42;70.74
55604;BME280;41468;48.838;9.330;2023-02-07T07:25:00;100291.66;;;-1.51;71.03
55604;BME280;41468;48.838;9.330;2023-02-07T07:27:27;100289.41;;;-1.43;72.49
55604;BME280;41468;48.838;9.330;2023-02-07T07:29:54;100293.16;;;-1.44;71.30
55604;BME280;41468;48.838;9.330;2023-02-07T07:32:20;100293.34;;;-1.34;71.84
55604;BME280;41468;48.838;9.330;2023-02-07T07:34:59;100285.78;;;-1.37;70.05
55604;BME280;41468;48.838;9.330;2023-02-07T07:37:25;100282.91;;;-1.18;71.04
55604;BME280;41468;48.838;9.330;2023-02-07T07:39:52;100277.66;;;-1.42;69.79
55604;BME280;41468;48.838;9.330;2023-02-07T07:42:18;100269.41;;;-1.23;71.02
55604;BME280;41468;48.838;9.330;2023-02-07T07:44:45;100272.63;;;-1.21;70.76
55604;BME280;41468;48.838;9.330;2023-02-07T07:47:16;100258.41;;;-1.39;70.59
55604;BME280;41468;48.838;9.330;2023-02-07T07:49:45;100269.69;;;-1.37;71.06
55604;BME280;41468;48.838;9.330;2023-02-07T07:52:12;100278.66;;;-1.31;71.35
55604;BME280;41468;48.838;9.330;2023-02-07T07:54:39;100289.63;;;-1.16;70.65
55604;BME280;41468;48.838;9.330;2023-02-07T07:57:05;100283.22;;;-0.98;70.95
55604;BME280;41468;48.838;9.330;2023-02-07T07:59:32;100291.84;;;-0.96;71.84
55604;BME280;41468;48.838;9.330;2023-02-07T08:01:58;100292.00;;;-1.02;71.36
55604;BME280;41468;48.838;9.330;2023-02-07T08:04:25;100288.72;;;-1.21;71.20
55604;BME280;41468;48.838;9.330;2023-02-07T08:06:52;100302.22;;;-1.16;71.19
55604;BME280;41468;48.838;9.330;2023-02-07T08:09:19;100303.28;;;-1.00;70.86
55604;BME280;41468;48.838;9.330;2023-02-07T08:11:46;100310.84;;;-0.97;70.96
55604;BME280;41468;48.838;9.330;2023-02-07T08:14:19;100316.69;;;-0.83;70.16
55604;BME280;41468;48.838;9.330;2023-02-07T08:16:46;100314.59;;;-0.81;70.43
55604;BME280;41468;48.838;9.330;2023-02-07T08:19:24;100319.25;;;-0.77;69.60
55604;BME280;41468;48.838;9.330;2023-02-07T08:21:50;100323.13;;;-0.68;70.29
55604;BME280;41468;48.838;9.330;2023-02-07T08:24:17;100322.91;;;-0.66;69.86
55604;BME280;41468;48.838;9.330;2023-02-07T08:26:43;100330.44;;;-0.46;69.78
55604;BME280;41468;48.838;9.330;2023-02-07T08:29:10;100337.13;;;-0.49;69.33
55604;BME280;41468;48.838;9.330;2023-02-07T08:31:37;100342.88;;;-0.23;68.66
55604;BME280;41468;48.838;9.330;2023-02-07T08:34:04;100351.00;;;-0.18;68.17
55604;BME280;41468;48.838;9.330;2023-02-07T08:36:31;100347.41;;;-0.07;66.87
55604;BME280;41468;48.838;9.330;2023-02-07T08:38:57;100356.34;;;-0.01;67.56
55604;BME280;41468;48.838;9.330;2023-02-07T08:41:24;100365.84;;;0.07;65.85
55604;BME280;41468;48.838;9.330;2023-02-07T08:43:51;100364.19;;;0.01;66.97
55604;BME280;41468;48.838;9.330;2023-02-07T08:46:17;100356.94;;;0.23;67.20
55604;BME280;41468;48.838;9.330;2023-02-07T08:48:44;100357.63;;;0.57;66.90
55604;BME280;41468;48.838;9.330;2023-02-07T08:51:11;100353.91;;;0.85;64.95
55604;BME280;41468;48.838;9.330;2023-02-07T08:53:37;100338.94;;;0.95;63.43
55604;BME280;41468;48.838;9.330;2023-02-07T08:56:04;100337.44;;;1.09;63.15
55604;BME280;41468;48.838;9.330;2023-02-07T08:58:31;100334.75;;;1.09;61.36
55604;BME280;41468;48.838;9.330;2023-02-07T09:00:57;100318.31;;;1.38;60.70
55604;BME280;41468;48.838;9.330;2023-02-07T09:03:24;100319.41;;;1.79;61.87
55604;BME280;41468;48.838;9.330;2023-02-07T09:05:56;100316.56;;;2.01;59.82
55604;BME280;41468;48.838;9.330;2023-02-07T09:08:23;100321.03;;;2.33;58.74
55604;BME280;41468;48.838;9.330;2023-02-07T09:10:49;100329.16;;;2.43;57.32
55604;BME280;41468;48.838;9.330;2023-02-07T09:13:16;100322.16;;;2.47;58.72
55604;BME280;41468;48.838;9.330;2023-02-07T09:15:42;100318.16;;;2.60;57.21
55604;BME280;41468;48.838;9.330;2023-02-07T09:18:09;100310.38;;;2.63;58.38
55604;BME280;41468;48.838;9.330;2023-02-07T09:20:36;100313.34;;;2.72;55.19
55604;BME280;41468;48.838;9.330;2023-02-07T09:23:04;100324.16;;;2.82;56.03
55604;BME280;41468;48.838;9.330;2023-02-07T09:25:47;100319.28;;;2.74;55.54
55604;BME280;41468;48.838;9.330;2023-02-07T09:28:15;100320.13;;;2.85;56.10
55604;BME280;41468;48.838;9.330;2023-02-07T09:30:43;100319.59;;;2.98;56.00
55604;BME280;41468;48.838;9.330;2023-02-07T09:33:12;100323.38;;;3.13;55.57
55604;BME280;41468;48.838;9.330;2023-02-07T09:35:41;100325.56;;;3.31;54.27
55604;BME280;41468;48.838;9.330;2023-02-07T09:38:12;100319.31;;;3.51;54.92
55604;BME280;41468;48.838;9.330;2023-02-07T09:40:39;100331.22;;;3.60;54.38
55604;BME280;41468;48.838;9.330;2023-02-07T09:43:24;100335.81;;;3.49;54.37
55604;BME280;41468;48.838;9.330;2023-02-07T09:45:58;100331.78;;;3.52;54.22
55604;BME280;41468;48.838;9.330;2023-02-07T09:48:44;100339.03;;;3.82;53.92
55604;BME280;41468;48.838;9.330;2023-02-07T09:51:12;100333.88;;;3.86;53.78
55604;BME280;41468;48.838;9.330;2023-02-07T09:53:45;100337.34;;;4.02;50.93
55604;BME280;41468;48.838;9.330;2023-02-07T09:56:17;100342.50;;;3.98;52.60
55604;BME280;41468;48.838;9.330;2023-02-07T09:59:03;100338.94;;;4.08;51.67
55604;BME280;41468;48.838;9.330;2023-02-07T10:01:43;100328.13;;;4.08;51.41
55604;BME280;41468;48.838;9.330;2023-02-07T10:06:54;100331.34;;;4.30;51.72
55604;BME280;41468;48.838;9.330;2023-02-07T10:09:30;100336.28;;;3.97;50.89
55604;BME280;41468;48.838;9.330;2023-02-07T10:22:56;100345.47;;;2.89;56.48
55604;BME280;41468;48.838;9.330;2023-02-07T10:30:35;100356.00;;;2.80;54.90
55604;BME280;41468;48.838;9.330;2023-02-07T10:33:14;100342.47;;;2.75;55.29
55604;BME280;41468;48.838;9.330;2023-02-07T10:35:43;100349.22;;;2.73;55.25
55604;BME280;41468;48.838;9.330;2023-02-07T10:38:33;100350.06;;;2.15;55.31
55604;BME280;41468;48.838;9.330;2023-02-07T10:43:34;100347.91;;;2.12;57.89
55604;BME280;41468;48.838;9.330;2023-02-07T10:46:04;100353.41;;;2.38;57.14
55604;BME280;41468;48.838;9.330;2023-02-07T10:48:32;100351.50;;;2.33;58.31
55604;BME280;41468;48.838;9.330;2023-02-07T10:51:02;100352.59;;;2.37;56.85
55604;BME280;41468;48.838;9.330;2023-02-07T10:53:43;100343.19;;;2.40;58.23
55604;BME280;41468;48.838;9.330;2023-02-07T10:56:25;100342.91;;;2.47;57.70
55604;BME280;41468;48.838;9.330;2023-02-07T10:58:56;100345.63;;;2.52;58.34
55604;BME280;41468;48.838;9.330;2023-02-07T11:01:26;100341.09;;;2.62;57.88
55604;BME280;41468;48.838;9.330;2023-02-07T11:04:21;100344.91;;;2.72;56.78
55604;BME280;41468;48.838;9.330;2023-02-07T11:06:59;100348.44;;;2.93;55.55
55604;BME280;41468;48.838;9.330;2023-02-07T11:09:26;100343.38;;;3.06;57.65
55604;BME280;41468;48.838;9.330;2023-02-07T11:11:53;100336.34;;;3.21;56.13
55604;BME280;41468;48.838;9.330;2023-02-07T11:14:22;100348.22;;;3.25;56.90
55604;BME280;41468;48.838;9.330;2023-02-07T11:16:58;100351.47;;;3.27;56.54
55604;BME280;41468;48.838;9.330;2023-02-07T11:19:28;100359.84;;;3.51;55.65
55604;BME280;41468;48.838;9.330;2023-02-07T11:22:16;100353.59;;;3.91;54.77
55604;BME280;41468;48.838;9.330;2023-02-07T11:24:44;100344.91;;;4.05;54.66
55604;BME280;41468;48.838;9.330;2023-02-07T11:27:15;100347.56;;;4.30;54.10
55604;BME280;41468;48.838;9.330;2023-02-07T11:29:53;100341.72;;;5.07;62.19
55604;BME280;41468;48.838;9.330;2023-02-07T11:32:20;100347.78;;;4.94;52.28
55604;BME280;41468;48.838;9.330;2023-02-07T11:34:55;100348.50;;;4.65;50.67
55604;BME280;41468;48.838;9.330;2023-02-07T11:37:31;100344.19;;;4.54;50.76
55604;BME280;41468;48.838;9.330;2023-02-07T11:42:56;100342.28;;;5.09;51.83
55604;BME280;41468;48.838;9.330;2023-02-07T11:45:23;100341.56;;;5.32;50.35
55604;BME280;41468;48.838;9.330;2023-02-07T11:47:53;100334.41;;;5.47;50.04
55604;BME280;41468;48.838;9.330;2023-02-07T11:50:28;100324.41;;;5.71;48.85
55604;BME280;41468;48.838;9.330;2023-02-07T11:52:58;100332.41;;;5.23;47.56
55604;BME280;41468;48.838;9.330;2023-02-07T11:55:40;100335.69;;;5.20;48.28
55604;BME280;41468;48.838;9.330;2023-02-07T11:58:17;100326.03;;;5.09;48.50
55604;BME280;41468;48.838;9.330;2023-02-07T12:00:45;100331.34;;;5.24;48.34
55604;BME280;41468;48.838;9.330;2023-02-07T12:03:26;100323.25;;;5.19;47.84
55604;BME280;41468;48.838;9.330;2023-02-07T12:05:56;100322.22;;;5.44;48.70
55604;BME280;41468;48.838;9.330;2023-02-07T12:08:27;100330.41;;;5.68;47.55
55604;BME280;41468;48.838;9.330;2023-02-07T12:10:58;100318.16;;;6.05;47.00
55604;BME280;41468;48.838;9.330;2023-02-07T12:13:37;100315.88;;;6.12;47.44
55604;BME280;41468;48.838;9.330;2023-02-07T12:16:14;100316.06;;;6.45;46.61
55604;BME280;41468;48.838;9.330;2023-02-07T12:21:27;100309.00;;;6.20;45.21
55604;BME280;41468;48.838;9.330;2023-02-07T12:24:14;100300.41;;;6.37;45.71
55604;BME280;41468;48.838;9.330;2023-02-07T12:26:51;100298.53;;;6.56;45.71
55604;BME280;41468;48.838;9.330;2023-02-07T12:35:19;100298.69;;;6.84;45.11
55604;BME280;41468;48.838;9.330;2023-02-07T12:40:38;100277.81;;;6.98;44.56
55604;BME280;41468;48.838;9.330;2023-02-07T12:43:11;100284.63;;;7.15;44.66
55604;BME280;41468;48.838;9.330;2023-02-07T12:48:39;100287.72;;;7.41;42.72
55604;BME280;41468;48.838;9.330;2023-02-07T12:54:01;100282.97;;;6.62;41.37
55604;BME280;41468;48.838;9.330;2023-02-07T12:56:34;100282.16;;;6.61;42.09
55604;BME280;41468;48.838;9.330;2023-02-07T13:05:39;100276.22;;;6.78;41.13
55604;BME280;41468;48.838;9.330;2023-02-07T13:08:16;100276.88;;;6.89;40.14
55604;BME280;41468;48.838;9.330;2023-02-07T13:11:14;100282.22;;;6.94;41.23
55604;BME280;41468;48.838;9.330;2023-02-07T13:16:40;100279.84;;;7.06;40.17
55604;BME280;41468;48.838;9.330;2023-02-07T13:19:20;100281.13;;;6.95;39.81
55604;BME280;41468;48.838;9.330;2023-02-07T13:24:54;100270.66;;;7.21;39.99
55604;BME280;41468;48.838;9.330;2023-02-07T13:27:22;100274.94;;;7.41;40.50
55604;BME280;41468;48.838;9.330;2023-02-07T13:29:51;100266.41;;;7.48;40.04
55604;BME280;41468;48.838;9.330;2023-02-07T13:32:21;100262.47;;;7.40;39.85
55604;BME280;41468;48.838;9.330;2023-02-07T13:35:02;100266.88;;;6.84;40.16
55604;BME280;41468;48.838;9.330;2023-02-07T13:37:46;100272.25;;;6.90;40.84
55604;BME280;41468;48.838;9.330;2023-02-07T13:40:37;100273.72;;;6.82;41.81
55604;BME280;41468;48.838;9.330;2023-02-07T13:43:38;100270.66;;;6.70;40.58
55604;BME280;41468;48.838;9.330;2023-02-07T13:46:17;100273.13;;;6.66;41.37
55604;BME280;41468;48.838;9.330;2023-02-07T13:52:10;100258.59;;;6.38;41.40
55604;BME280;41468;48.838;9.330;2023-02-07T13:54:49;100257.41;;;6.25;39.75
55604;BME280;41468;48.838;9.330;2023-02-07T13:57:38;100270.19;;;6.44;40.29
55604;BME280;41468;48.838;9.330;2023-02-07T14:00:26;100264.00;;;6.19;41.27
55604;BME280;41468;48.838;9.330;2023-02-07T14:03:01;100259.03;;;6.26;41.07
55604;BME280;41468;48.838;9.330;2023-02-07T14:05:39;100260.78;;;6.36;41.52
55604;BME280;41468;48.838;9.330;2023-02-07T14:13:29;100256.38;;;6.21;41.33
55604;BME280;41468;48.838;9.330;2023-02-07T14:16:04;100255.22;;;6.27;41.42
55604;BME280;41468;48.838;9.330;2023-02-07T14:18:33;100259.59;;;6.23;42.24
55604;BME280;41468;48.838;9.330;2023-02-07T14:24:28;100260.03;;;6.11;42.27
55604;BME280;41468;48.838;9.330;2023-02-07T14:26:56;100259.56;;;6.04;43.25
55604;BME280;41468;48.838;9.330;2023-02-07T14:31:59;100265.38;;;6.16;42.28
55604;BME280;41468;48.838;9.330;2023-02-07T14:34:31;100267.25;;;5.97;42.27
55604;BME280;41468;48.838;9.330;2023-02-07T14:37:36;100269.13;;;5.72;43.76
55604;BME280;41468;48.838;9.330;2023-02-07T14:40:15;100263.22;;;5.94;44.14
55604;BME280;41468;48.838;9.330;2023-02-07T14:42:58;100263.81;;;5.86;45.21
55604;BME280;41468;48.838;9.330;2023-02-07T14:45:32;100263.50;;;5.88;44.29
55604;BME280;41468;48.838;9.330;2023-02-07T14:47:59;100261.44;;;5.80;44.68
55604;BME280;41468;48.838;9.330;2023-02-07T14:50:28;100269.97;;;5.68;45.14
55604;BME280;41468;48.838;9.330;2023-02-07T14:53:01;100267.94;;;5.54;44.35